Southern Pines, NC

2:11 PM EDT on October 20, 2017 (GMT -0400)
Moore County

Weather History for KSOP - December, 2011

Change the Weather History Date:

Tuesday, December 13, 2011

  Actual Average Record
Temperature  
Mean Temperature 47 °F -  
Max Temperature 64 °F 52 °F 77 °F (2007)
Min Temperature 30 °F 32 °F 19 °F (2013)
Degree Days  
Heating Degree Days 18    
Moisture  
Dew Point 35 °F    
Average Humidity 72    
Maximum Humidity 93    
Minimum Humidity 52    
Precipitation  
Precipitation 0.00 in - - ()
Sea Level Pressure  
Sea Level Pressure 30.41 in    
Wind  
Wind Speed 0 mph (NW)    
Max Wind Speed 7 mph    
Max Gust Speed -    
Visibility 10 miles    
Events      
Averages and records for this station are not official NWS values.
T = Trace of Precipitation, MM = Missing Value Source: NWS Daily Summary

Daily Weather History Graph

Daily Weather History Graph

Search for Another Location

Airport or City:

Trip Planner

Search our weather history database for the weather conditions in past years. The results will help you decide how hot, cold, wet, or windy it might be!

Date:

Astronomy

Dec. 13, 2011 Rise Set
Actual Time 7:17 AM EST 5:06 PM EST
Civil Twilight 6:49 AM EST 5:34 PM EST
Nautical Twilight 6:17 AM EST 6:05 PM EST
Astronomical Twilight 5:46 AM EST 6:36 PM EST
Moon 8:14 PM EST (12/13) 9:29 AM EST (12/13)
Length of Visible Light 10h 45m
Length of Day
9h 48m
Waning Gibbous, 90% of the Moon is Illuminated
Dec 13
Waning Gibbous
Dec 17
Last Quarter
Dec 24
New
Jan 1
First Quarter
Jan 9
Full

Hourly Weather History & Observations

Time (EST) Temp. Windchill Dew Point Humidity Pressure Visibility Wind Dir Wind Speed Gust Speed Precip Events Conditions
12:15 AM 33.8 °F - 28.4 °F 81% 30.46 in 10.0 mi Calm Calm - N/A   Clear
12:35 AM 33.8 °F - 28.4 °F 81% 30.45 in 10.0 mi Calm Calm - N/A   Clear
12:55 AM 32.0 °F - 28.4 °F 87% 30.45 in 10.0 mi Calm Calm - N/A   Clear
1:15 AM 32.0 °F - 26.6 °F 80% 30.44 in 10.0 mi Calm Calm - N/A   Clear
1:35 AM 30.2 °F - 26.6 °F 86% 30.43 in 10.0 mi Calm Calm - N/A   Clear
1:55 AM 30.2 °F - 26.6 °F 86% 30.43 in 10.0 mi Calm Calm - N/A   Clear
2:15 AM 30.2 °F - 28.4 °F 93% 30.43 in 10.0 mi Calm Calm - N/A   Clear
2:35 AM 30.2 °F - 28.4 °F 93% 30.43 in 10.0 mi Calm Calm - N/A   Clear
2:55 AM 30.2 °F - 28.4 °F 93% 30.43 in 10.0 mi Calm Calm - N/A   Clear
3:15 AM 32.0 °F 28.7 °F 28.4 °F 87% 30.44 in 10.0 mi WNW 3.5 mph - N/A   Clear
3:35 AM 32.0 °F - 28.4 °F 87% 30.44 in 10.0 mi Calm Calm - N/A   Clear
3:55 AM 30.2 °F - 26.6 °F 86% 30.43 in 10.0 mi Calm Calm - N/A   Clear
4:15 AM 30.2 °F - 28.4 °F 93% 30.43 in 10.0 mi Calm Calm - N/A   Clear
4:35 AM 30.2 °F - 26.6 °F 86% 30.42 in 10.0 mi Calm Calm - N/A   Clear
4:55 AM 30.2 °F 26.7 °F 26.6 °F 86% 30.43 in 10.0 mi WNW 3.5 mph - N/A   Clear
5:35 AM 32.0 °F - 28.4 °F 87% 30.43 in 10.0 mi Calm Calm - N/A   Clear
5:55 AM 32.0 °F - 26.6 °F 80% 30.44 in 10.0 mi Calm Calm - N/A   Clear
6:15 AM 33.8 °F - 28.4 °F 81% 30.44 in 10.0 mi Calm Calm - N/A   Clear
6:35 AM 33.8 °F - 28.4 °F 81% 30.44 in 10.0 mi Calm Calm - N/A   Clear
6:55 AM 30.2 °F - 26.6 °F 86% 30.44 in 10.0 mi Calm Calm - N/A   Clear
7:15 AM 30.2 °F - 26.6 °F 86% 30.45 in 10.0 mi Calm Calm - N/A   Clear
7:35 AM 30.2 °F - 26.6 °F 86% 30.45 in 10.0 mi Calm Calm - N/A   Clear
7:55 AM 32.0 °F - 28.4 °F 87% 30.45 in 10.0 mi Calm Calm - N/A   Clear
8:15 AM 35.6 °F - 30.2 °F 81% 30.46 in 10.0 mi Calm Calm - N/A   Clear
8:35 AM 37.4 °F - 32.0 °F 81% 30.47 in 10.0 mi Calm Calm - N/A   Clear
8:55 AM 39.2 °F - 30.2 °F 70% 30.46 in 10.0 mi Calm Calm - N/A   Clear
9:15 AM 41.0 °F - 32.0 °F 70% 30.46 in 10.0 mi Calm Calm - N/A   Clear
9:35 AM 42.8 °F - 33.8 °F 70% 30.45 in 10.0 mi Calm Calm - N/A   Clear
9:55 AM 44.6 °F - 33.8 °F 66% 30.45 in 10.0 mi Calm Calm - N/A   Clear
10:15 AM 48.2 °F - 33.8 °F 58% 30.45 in 10.0 mi Calm Calm - N/A   Clear
10:35 AM 48.2 °F - 33.8 °F 58% 30.45 in 10.0 mi Calm Calm - N/A   Clear
10:55 AM 51.8 °F - 35.6 °F 54% 30.44 in 10.0 mi Calm Calm - N/A   Clear
11:15 AM 53.6 °F - 37.4 °F 54% 30.44 in 10.0 mi Calm Calm - N/A   Clear
11:35 AM 55.4 °F - 39.2 °F 54% 30.43 in 10.0 mi North 3.5 mph - N/A   Clear
11:55 AM 57.2 °F - 42.8 °F 59% 30.42 in 10.0 mi Calm Calm - N/A   Clear
12:15 PM 57.2 °F - 42.8 °F 59% 30.40 in 10.0 mi Calm Calm - N/A   Clear
12:35 PM 59.0 °F - 42.8 °F 55% 30.40 in 10.0 mi North 3.5 mph - N/A   Clear
12:55 PM 60.8 °F - 42.8 °F 52% 30.39 in 10.0 mi Calm Calm - N/A   Clear
1:15 PM 60.8 °F - 42.8 °F 52% 30.38 in 10.0 mi Calm Calm - N/A   Clear
1:35 PM 60.8 °F - 44.6 °F 55% 30.36 in 10.0 mi Calm Calm - N/A   Clear
2:15 PM 62.6 °F - 44.6 °F 52% 30.36 in 10.0 mi WSW 3.5 mph - N/A   Clear
2:35 PM 64.4 °F - 46.4 °F 52% 30.36 in 10.0 mi NNW 6.9 mph - N/A   Clear
2:55 PM 62.6 °F - 46.4 °F 55% 30.36 in 10.0 mi NW 3.5 mph - N/A   Clear
3:15 PM 62.6 °F - 46.4 °F 55% 30.36 in 10.0 mi NW 4.6 mph - N/A   Clear
3:35 PM 62.6 °F - 46.4 °F 55% 30.36 in 10.0 mi Calm Calm - N/A   Clear
3:55 PM 62.6 °F - 46.4 °F 55% 30.35 in 10.0 mi Calm Calm - N/A   Clear
4:15 PM 62.6 °F - 46.4 °F 55% 30.35 in 10.0 mi Calm Calm - N/A   Clear
4:35 PM 60.8 °F - 44.6 °F 55% 30.36 in 10.0 mi Calm Calm - N/A   Clear
4:55 PM 60.8 °F - 44.6 °F 55% 30.36 in 10.0 mi Calm Calm - N/A   Clear
5:15 PM 57.2 °F - 44.6 °F 63% 30.36 in 10.0 mi Calm Calm - N/A   Clear
5:35 PM 53.6 °F - 44.6 °F 72% 30.36 in 10.0 mi Calm Calm - N/A   Clear
5:55 PM 51.8 °F - 42.8 °F 71% 30.36 in 10.0 mi Calm Calm - N/A   Clear
6:15 PM 50.0 °F - 44.6 °F 82% 30.37 in 10.0 mi Calm Calm - N/A   Clear
6:35 PM 50.0 °F - 44.6 °F 82% 30.37 in 10.0 mi Calm Calm - N/A   Clear
6:55 PM 48.2 °F - 42.8 °F 82% 30.37 in 10.0 mi Calm Calm - N/A   Clear
7:15 PM 46.4 °F - 41.0 °F 81% 30.37 in 10.0 mi Calm Calm - N/A   Clear
7:35 PM 46.4 °F - 39.2 °F 76% 30.37 in 10.0 mi Calm Calm - N/A   Clear
7:55 PM 44.6 °F - 41.0 °F 87% 30.37 in 10.0 mi Calm Calm - N/A   Clear
8:35 PM 44.6 °F - 39.2 °F 81% 30.37 in 10.0 mi Calm Calm - N/A   Clear
8:55 PM 42.8 °F - 39.2 °F 87% 30.37 in 10.0 mi Calm Calm - N/A   Clear
9:15 PM 44.6 °F - 39.2 °F 81% 30.38 in 10.0 mi Calm Calm - N/A   Clear
9:35 PM 42.8 °F - 39.2 °F 87% 30.38 in 8.0 mi Calm Calm - N/A   Clear
10:15 PM 42.8 °F - 39.2 °F 87% 30.38 in 9.0 mi Calm Calm - N/A   Clear
10:35 PM 41.0 °F - 37.4 °F 87% 30.39 in 4.0 mi Calm Calm - N/A   Clear
10:55 PM 41.0 °F - 39.2 °F 93% 30.39 in 5.0 mi Calm Calm - N/A   Clear
11:15 PM 41.0 °F - 37.4 °F 87% 30.39 in 2.5 mi Calm Calm - N/A   Clear
11:35 PM 41.0 °F - 39.2 °F 93% 30.39 in 1.8 mi Calm Calm - N/A   Clear